N758WD KTEB-EGLF
Flight info
| Callsign | N758WD |
|---|---|
| Flight time | N/A |
| Altitude | 45000 |
| Route | BREZY V39 CMK DCT MERIT DCT HFD DCT PUT DCT BOS Q75 COPLY DCT BRADD N261B NICSO/M081F450 DCT 4850N DCT 5040N DCT 5230N DCT 5420N DCT DOGAL/N0483F450 DCT BEXET DCT LUPOR DCT ENJEX DCT AVZAC DCT ICOSA DCT RUHUN DCT HAWFA L607 NUCHU P73 GOBNU |
| Aircraft | C700/M-SBDGHM1RWXY/LB2 |
Departure
| Time | N/A |
|---|---|
| Airport | Teterboro Airport (KTEB) |
Arrival
| Time | 2026-04-26 00:35 |
|---|---|
| Airport | Farnborough Airport (EGLF) |
| Time | Latitude | Longitude | Altitude | Speed | Heading |
|---|---|---|---|---|---|
| 2026-04-25 23:00 | 54.00008 | -14.96759 | 45174 ft | 484 kts | 90° |
| 2026-04-25 23:00 | 54.00059 | -14.85355 | 45176 ft | 482 kts | 91° |
| 2026-04-25 23:01 | 54.00077 | -14.73999 | 45176 ft | 480 kts | 91° |
| 2026-04-25 23:01 | 54.00101 | -14.62685 | 45176 ft | 478 kts | 91° |
| 2026-04-25 23:02 | 54.00104 | -14.51382 | 45175 ft | 479 kts | 91° |
| 2026-04-25 23:02 | 54.00102 | -14.40027 | 45180 ft | 482 kts | 91° |
| 2026-04-25 23:03 | 54.00086 | -14.28621 | 45184 ft | 483 kts | 91° |
| 2026-04-25 23:03 | 54.00061 | -14.17229 | 45185 ft | 481 kts | 91° |
| 2026-04-25 23:04 | 53.99968 | -14.05893 | 45176 ft | 478 kts | 96° |
| 2026-04-25 23:04 | 53.98383 | -13.95049 | 45192 ft | 472 kts | 115° |
| 2026-04-25 23:05 | 53.95369 | -13.85135 | 45201 ft | 474 kts | 120° |
| 2026-04-25 23:05 | 53.92274 | -13.75218 | 45189 ft | 477 kts | 120° |
| 2026-04-25 23:06 | 53.89154 | -13.65293 | 45191 ft | 476 kts | 120° |
| 2026-04-25 23:06 | 53.86045 | -13.55435 | 45190 ft | 473 kts | 120° |
| 2026-04-25 23:07 | 53.82943 | -13.45640 | 45195 ft | 471 kts | 120° |
| 2026-04-25 23:07 | 53.79837 | -13.35875 | 45197 ft | 472 kts | 120° |
| 2026-04-25 23:08 | 53.76710 | -13.26078 | 45199 ft | 475 kts | 120° |
| 2026-04-25 23:08 | 53.73559 | -13.16249 | 45201 ft | 477 kts | 120° |
| 2026-04-25 23:09 | 53.70396 | -13.06422 | 45201 ft | 475 kts | 120° |
| 2026-04-25 23:09 | 53.67241 | -12.96659 | 45200 ft | 473 kts | 120° |
| 2026-04-25 23:10 | 53.64092 | -12.86952 | 45206 ft | 471 kts | 120° |
| 2026-04-25 23:10 | 53.60965 | -12.77354 | 45205 ft | 471 kts | 121° |
| 2026-04-25 23:11 | 53.57792 | -12.67652 | 45206 ft | 474 kts | 121° |
| 2026-04-25 23:11 | 53.54598 | -12.57925 | 45215 ft | 476 kts | 121° |
| 2026-04-25 23:12 | 53.51389 | -12.48187 | 45212 ft | 475 kts | 121° |
| 2026-04-25 23:12 | 53.48190 | -12.38522 | 45213 ft | 472 kts | 121° |
| 2026-04-25 23:13 | 53.45001 | -12.28926 | 45212 ft | 469 kts | 121° |
| 2026-04-25 23:13 | 53.41808 | -12.19355 | 45214 ft | 472 kts | 121° |
| 2026-04-25 23:14 | 53.38591 | -12.09749 | 45223 ft | 474 kts | 121° |
| 2026-04-25 23:14 | 53.35348 | -12.00100 | 45221 ft | 476 kts | 121° |
| 2026-04-25 23:15 | 53.32100 | -11.90475 | 45225 ft | 474 kts | 121° |
| 2026-04-25 23:15 | 53.28861 | -11.80917 | 45218 ft | 471 kts | 121° |
| 2026-04-25 23:16 | 53.25629 | -11.71415 | 45219 ft | 469 kts | 121° |
| 2026-04-25 23:16 | 53.22388 | -11.61922 | 45227 ft | 472 kts | 121° |
| 2026-04-25 23:17 | 53.19119 | -11.52385 | 45232 ft | 475 kts | 121° |
| 2026-04-25 23:17 | 53.15829 | -11.42823 | 45232 ft | 474 kts | 121° |
| 2026-04-25 23:18 | 53.12550 | -11.33329 | 45227 ft | 471 kts | 121° |
| 2026-04-25 23:18 | 53.09306 | -11.23974 | 45225 ft | 469 kts | 122° |
| 2026-04-25 23:19 | 53.06005 | -11.14488 | 45231 ft | 473 kts | 122° |
| 2026-04-25 23:19 | 53.02710 | -11.05058 | 45236 ft | 476 kts | 122° |
| 2026-04-25 23:20 | 52.99365 | -10.95518 | 45241 ft | 473 kts | 122° |
| 2026-04-25 23:20 | 52.96058 | -10.86126 | 45236 ft | 470 kts | 122° |
| 2026-04-25 23:21 | 52.92757 | -10.76782 | 45233 ft | 470 kts | 122° |
| 2026-04-25 23:21 | 52.89451 | -10.67462 | 45238 ft | 474 kts | 122° |
| 2026-04-25 23:22 | 52.86097 | -10.58041 | 45243 ft | 475 kts | 122° |
| 2026-04-25 23:23 | 52.81070 | -10.43987 | 45238 ft | 472 kts | 122° |
| 2026-04-25 23:23 | 52.77728 | -10.34687 | 45231 ft | 470 kts | 122° |
| 2026-04-25 23:24 | 52.74386 | -10.25420 | 45234 ft | 470 kts | 122° |
| 2026-04-25 23:24 | 52.71029 | -10.16150 | 45235 ft | 472 kts | 122° |
| 2026-04-25 23:25 | 52.67646 | -10.06839 | 45239 ft | 474 kts | 122° |
| 2026-04-25 23:25 | 52.64242 | -9.97505 | 45242 ft | 476 kts | 122° |
| 2026-04-25 23:26 | 52.60838 | -9.88206 | 45243 ft | 473 kts | 122° |
| 2026-04-25 23:26 | 52.57444 | -9.78971 | 45235 ft | 470 kts | 123° |
| 2026-04-25 23:27 | 52.54397 | -9.69500 | 45237 ft | 471 kts | 111° |
| 2026-04-25 23:27 | 52.52904 | -9.58980 | 45244 ft | 475 kts | 101° |
| 2026-04-25 23:28 | 52.51647 | -9.48285 | 45243 ft | 479 kts | 102° |
| 2026-04-25 23:28 | 52.50375 | -9.37553 | 45244 ft | 478 kts | 102° |
| 2026-04-25 23:29 | 52.49101 | -9.26880 | 45241 ft | 475 kts | 102° |
| 2026-04-25 23:29 | 52.47821 | -9.16264 | 45235 ft | 473 kts | 102° |
| 2026-04-25 23:30 | 52.46539 | -9.05695 | 45233 ft | 473 kts | 102° |
| 2026-04-25 23:30 | 52.45247 | -8.95146 | 45230 ft | 477 kts | 102° |
| 2026-04-25 23:31 | 52.43931 | -8.84468 | 45238 ft | 479 kts | 102° |
| 2026-04-25 23:31 | 52.42605 | -8.73807 | 45225 ft | 476 kts | 102° |
| 2026-04-25 23:32 | 52.41271 | -8.63155 | 45218 ft | 472 kts | 102° |
| 2026-04-25 23:32 | 52.39950 | -8.52698 | 45215 ft | 473 kts | 102° |
| 2026-04-25 23:33 | 52.38605 | -8.42122 | 45218 ft | 476 kts | 102° |
| 2026-04-25 23:33 | 52.37244 | -8.31497 | 45219 ft | 478 kts | 102° |
| 2026-04-25 23:34 | 52.36094 | -8.22590 | 45218 ft | 477 kts | 102° |
| 2026-04-25 23:34 | 52.34720 | -8.12021 | 45217 ft | 474 kts | 103° |
| 2026-04-25 23:35 | 52.33345 | -8.01515 | 45213 ft | 471 kts | 103° |
| 2026-04-25 23:35 | 52.31970 | -7.91100 | 45213 ft | 473 kts | 103° |
| 2026-04-25 23:36 | 52.30569 | -7.80553 | 45221 ft | 476 kts | 103° |
| 2026-04-25 23:36 | 52.29150 | -7.69957 | 45226 ft | 477 kts | 103° |
| 2026-04-25 23:37 | 52.27728 | -7.59403 | 45218 ft | 474 kts | 103° |
| 2026-04-25 23:37 | 52.26303 | -7.48914 | 45217 ft | 472 kts | 103° |
| 2026-04-25 23:38 | 52.24875 | -7.38476 | 45223 ft | 472 kts | 103° |
| 2026-04-25 23:38 | 52.23432 | -7.27998 | 45226 ft | 475 kts | 103° |
| 2026-04-25 23:39 | 52.21970 | -7.17464 | 45225 ft | 477 kts | 103° |
| 2026-04-25 23:39 | 52.20500 | -7.06938 | 45224 ft | 475 kts | 103° |
| 2026-04-25 23:40 | 52.19029 | -6.96485 | 45226 ft | 472 kts | 103° |
| 2026-04-25 23:40 | 52.17556 | -6.86090 | 45228 ft | 470 kts | 103° |
| 2026-04-25 23:41 | 52.16078 | -6.75724 | 45227 ft | 470 kts | 103° |
| 2026-04-25 23:41 | 52.14587 | -6.65346 | 45222 ft | 472 kts | 103° |
| 2026-04-25 23:42 | 52.13078 | -6.54909 | 45234 ft | 475 kts | 104° |
| 2026-04-25 23:42 | 52.11553 | -6.44436 | 45238 ft | 476 kts | 104° |
| 2026-04-25 23:43 | 52.10024 | -6.33997 | 45224 ft | 473 kts | 104° |
| 2026-04-25 23:43 | 52.08492 | -6.23617 | 45218 ft | 471 kts | 104° |
| 2026-04-25 23:44 | 52.06957 | -6.13282 | 45221 ft | 471 kts | 104° |
| 2026-04-25 23:44 | 52.05247 | -6.02970 | 45223 ft | 473 kts | 112° |
| 2026-04-25 23:45 | 52.02524 | -5.93226 | 45247 ft | 475 kts | 115° |
| 2026-04-25 23:45 | 51.99800 | -5.83516 | 45233 ft | 474 kts | 115° |
| 2026-04-25 23:46 | 51.97054 | -5.73837 | 45231 ft | 470 kts | 115° |
| 2026-04-25 23:46 | 51.94328 | -5.64235 | 45224 ft | 469 kts | 115° |
| 2026-04-25 23:47 | 51.91579 | -5.54605 | 45233 ft | 472 kts | 115° |
| 2026-04-25 23:47 | 51.88806 | -5.44928 | 45223 ft | 475 kts | 115° |
| 2026-04-25 23:48 | 51.86017 | -5.35234 | 45231 ft | 474 kts | 115° |
| 2026-04-25 23:48 | 51.83235 | -5.25602 | 45224 ft | 471 kts | 116° |
| 2026-04-25 23:49 | 51.80459 | -5.16034 | 45216 ft | 469 kts | 116° |
| 2026-04-25 23:49 | 51.77821 | -5.06386 | 45229 ft | 471 kts | 108° |
| 2026-04-25 23:50 | 51.76456 | -4.96007 | 45241 ft | 474 kts | 101° |
| 2026-04-25 23:50 | 51.75208 | -4.85526 | 45239 ft | 476 kts | 101° |
| 2026-04-25 23:51 | 51.73957 | -4.75081 | 45235 ft | 471 kts | 101° |
| 2026-04-25 23:51 | 51.72711 | -4.64749 | 45232 ft | 469 kts | 101° |
| 2026-04-25 23:52 | 51.71450 | -4.54401 | 45228 ft | 472 kts | 101° |
| 2026-04-25 23:52 | 51.70173 | -4.43980 | 45241 ft | 475 kts | 101° |
| 2026-04-25 23:53 | 51.68882 | -4.33532 | 45241 ft | 474 kts | 101° |
| 2026-04-25 23:53 | 51.67591 | -4.23167 | 45231 ft | 471 kts | 101° |
| 2026-04-25 23:54 | 51.66298 | -4.12861 | 45225 ft | 468 kts | 101° |
| 2026-04-25 23:54 | 51.64996 | -4.02560 | 45239 ft | 471 kts | 102° |
| 2026-04-25 23:55 | 51.63675 | -3.92196 | 45235 ft | 474 kts | 102° |
| 2026-04-25 23:55 | 51.62339 | -3.81786 | 45245 ft | 475 kts | 102° |
| 2026-04-25 23:56 | 51.60993 | -3.71374 | 45243 ft | 475 kts | 102° |
| 2026-04-25 23:56 | 51.59640 | -3.60966 | 45247 ft | 476 kts | 101° |
| 2026-04-25 23:57 | 51.58926 | -3.50403 | 45236 ft | 475 kts | 95° |
| 2026-04-25 23:57 | 51.58302 | -3.39817 | 45248 ft | 475 kts | 95° |
| 2026-04-25 23:58 | 51.57676 | -3.29227 | 45242 ft | 476 kts | 95° |
| 2026-04-25 23:58 | 51.57039 | -3.18636 | 45237 ft | 476 kts | 95° |
| 2026-04-25 23:59 | 51.56398 | -3.08152 | 45289 ft | 473 kts | 95° |
| 2026-04-25 23:59 | 51.55748 | -2.97658 | 45290 ft | 471 kts | 95° |
| 2026-04-25 23:59 | 51.55419 | -2.92414 | 45051 ft | 475 kts | 96° |
| 2026-04-26 00:00 | 51.55078 | -2.87020 | 44391 ft | 480 kts | 95° |
| 2026-04-26 00:00 | 51.54745 | -2.81760 | 43763 ft | 478 kts | 95° |
| 2026-04-26 00:00 | 51.54405 | -2.76465 | 43097 ft | 475 kts | 96° |
| 2026-04-26 00:00 | 51.54066 | -2.71208 | 42462 ft | 472 kts | 96° |
| 2026-04-26 00:01 | 51.53726 | -2.65979 | 41849 ft | 469 kts | 96° |
| 2026-04-26 00:01 | 51.53386 | -2.60787 | 41239 ft | 467 kts | 96° |
| 2026-04-26 00:01 | 51.53046 | -2.55611 | 40623 ft | 466 kts | 96° |
| 2026-04-26 00:01 | 51.52702 | -2.50428 | 40011 ft | 468 kts | 96° |
| 2026-04-26 00:02 | 51.52354 | -2.45221 | 39396 ft | 470 kts | 96° |
| 2026-04-26 00:02 | 51.52002 | -2.39988 | 38751 ft | 473 kts | 96° |
| 2026-04-26 00:02 | 51.51646 | -2.34735 | 38090 ft | 472 kts | 96° |
| 2026-04-26 00:02 | 51.51290 | -2.29500 | 37468 ft | 471 kts | 96° |
| 2026-04-26 00:03 | 51.50930 | -2.24266 | 36851 ft | 473 kts | 96° |
| 2026-04-26 00:03 | 51.50567 | -2.18999 | 36228 ft | 476 kts | 96° |
| 2026-04-26 00:03 | 51.50198 | -2.13693 | 35598 ft | 480 kts | 96° |
| 2026-04-26 00:03 | 51.49824 | -2.08352 | 34966 ft | 483 kts | 96° |
| 2026-04-26 00:04 | 51.49447 | -2.03006 | 34360 ft | 482 kts | 96° |
| 2026-04-26 00:04 | 51.49068 | -1.97660 | 33695 ft | 482 kts | 96° |
| 2026-04-26 00:04 | 51.48687 | -1.92327 | 33033 ft | 481 kts | 96° |
| 2026-04-26 00:04 | 51.48304 | -1.86997 | 32411 ft | 481 kts | 96° |
| 2026-04-26 00:05 | 51.47918 | -1.81654 | 31802 ft | 484 kts | 96° |
| 2026-04-26 00:05 | 51.47527 | -1.76280 | 31216 ft | 487 kts | 96° |
| 2026-04-26 00:05 | 51.47132 | -1.70880 | 30648 ft | 489 kts | 96° |
| 2026-04-26 00:05 | 51.47013 | -1.65430 | 30030 ft | 489 kts | 87° |
| 2026-04-26 00:06 | 51.47278 | -1.60074 | 29395 ft | 471 kts | 84° |
| 2026-04-26 00:06 | 51.47544 | -1.54964 | 28773 ft | 449 kts | 85° |
| 2026-04-26 00:06 | 51.47786 | -1.50085 | 28161 ft | 430 kts | 85° |
| 2026-04-26 00:06 | 51.48013 | -1.45389 | 27560 ft | 414 kts | 85° |
| 2026-04-26 00:07 | 51.47979 | -1.40853 | 26966 ft | 402 kts | 95° |
| 2026-04-26 00:07 | 51.47454 | -1.36519 | 26397 ft | 391 kts | 106° |
| 2026-04-26 00:07 | 51.46501 | -1.32507 | 25827 ft | 381 kts | 116° |
| 2026-04-26 00:07 | 51.45166 | -1.28879 | 25286 ft | 376 kts | 126° |
| 2026-04-26 00:08 | 51.43491 | -1.25689 | 24750 ft | 373 kts | 136° |
| 2026-04-26 00:08 | 51.41528 | -1.23007 | 24242 ft | 370 kts | 146° |
| 2026-04-26 00:08 | 51.39338 | -1.20892 | 23722 ft | 366 kts | 155° |
| 2026-04-26 00:08 | 51.36987 | -1.19387 | 23133 ft | 362 kts | 165° |
| 2026-04-26 00:09 | 51.34549 | -1.18512 | 22568 ft | 357 kts | 174° |
| 2026-04-26 00:09 | 51.32103 | -1.17960 | 22005 ft | 353 kts | 174° |
| 2026-04-26 00:09 | 51.29685 | -1.17390 | 21479 ft | 350 kts | 174° |
| 2026-04-26 00:09 | 51.27287 | -1.16817 | 20963 ft | 347 kts | 174° |
| 2026-04-26 00:10 | 51.24906 | -1.16260 | 20460 ft | 344 kts | 174° |
| 2026-04-26 00:10 | 51.22567 | -1.15716 | 19969 ft | 336 kts | 174° |
| 2026-04-26 00:10 | 51.20283 | -1.15182 | 19484 ft | 328 kts | 173° |
| 2026-04-26 00:10 | 51.18049 | -1.14660 | 19006 ft | 321 kts | 173° |
| 2026-04-26 00:11 | 51.15856 | -1.14148 | 18530 ft | 316 kts | 173° |
| 2026-04-26 00:11 | 51.13697 | -1.13646 | 18003 ft | 311 kts | 173° |
| 2026-04-26 00:11 | 51.11568 | -1.13154 | 17483 ft | 306 kts | 174° |
| 2026-04-26 00:11 | 51.09505 | -1.13243 | 16929 ft | 299 kts | 197° |
| 2026-04-26 00:12 | 51.07757 | -1.14881 | 16390 ft | 291 kts | 227° |
| 2026-04-26 00:12 | 51.06744 | -1.17596 | 15876 ft | 285 kts | 254° |
| 2026-04-26 00:12 | 51.06633 | -1.20685 | 15369 ft | 281 kts | 280° |
| 2026-04-26 00:12 | 51.07410 | -1.23488 | 14873 ft | 279 kts | 306° |
| 2026-04-26 00:13 | 51.08899 | -1.25424 | 14388 ft | 279 kts | 333° |
| 2026-04-26 00:13 | 51.10784 | -1.26072 | 13886 ft | 280 kts | 360° |
| 2026-04-26 00:13 | 51.12714 | -1.25768 | 13401 ft | 277 kts | 6° |
| 2026-04-26 00:13 | 51.14616 | -1.25340 | 12923 ft | 275 kts | 7° |
| 2026-04-26 00:14 | 51.16506 | -1.24954 | 12453 ft | 272 kts | 6° |
| 2026-04-26 00:14 | 51.18380 | -1.24612 | 11986 ft | 270 kts | 5° |
| 2026-04-26 00:14 | 51.20238 | -1.24542 | 11500 ft | 266 kts | 350° |
| 2026-04-26 00:14 | 51.22062 | -1.24489 | 11012 ft | 266 kts | 16° |
| 2026-04-26 00:15 | 51.23571 | -1.22830 | 10524 ft | 269 kts | 51° |
| 2026-04-26 00:15 | 51.24241 | -1.20091 | 10046 ft | 269 kts | 85° |
| 2026-04-26 00:15 | 51.24014 | -1.17151 | 9579 ft | 266 kts | 103° |
| 2026-04-26 00:15 | 51.23628 | -1.14280 | 9138 ft | 264 kts | 100° |
| 2026-04-26 00:16 | 51.23424 | -1.11389 | 8691 ft | 261 kts | 91° |
| 2026-04-26 00:16 | 51.23579 | -1.08515 | 8246 ft | 260 kts | 79° |
| 2026-04-26 00:16 | 51.23975 | -1.05719 | 7824 ft | 257 kts | 77° |
| 2026-04-26 00:16 | 51.24339 | -1.02937 | 7415 ft | 255 kts | 80° |
| 2026-04-26 00:17 | 51.24626 | -1.00156 | 7012 ft | 253 kts | 81° |
| 2026-04-26 00:17 | 51.24909 | -0.97392 | 6612 ft | 251 kts | 81° |
| 2026-04-26 00:17 | 51.25207 | -0.94659 | 6181 ft | 249 kts | 80° |
| 2026-04-26 00:17 | 51.25504 | -0.91948 | 5804 ft | 247 kts | 80° |
| 2026-04-26 00:18 | 51.25794 | -0.89261 | 5397 ft | 244 kts | 80° |
| 2026-04-26 00:18 | 51.26065 | -0.86599 | 4992 ft | 241 kts | 84° |
| 2026-04-26 00:18 | 51.25963 | -0.84848 | 4677 ft | 241 kts | 107° |
| 2026-04-26 00:18 | 51.25002 | -0.82686 | 4229 ft | 242 kts | 137° |
| 2026-04-26 00:19 | 51.23531 | -0.81412 | 3813 ft | 243 kts | 163° |
| 2026-04-26 00:19 | 51.21858 | -0.81060 | 3416 ft | 241 kts | 168° |
| 2026-04-26 00:19 | 51.20252 | -0.80372 | 3032 ft | 237 kts | 160° |
| 2026-04-26 00:19 | 51.18771 | -0.79448 | 3004 ft | 220 kts | 154° |
| 2026-04-26 00:20 | 51.17558 | -0.78160 | 2978 ft | 203 kts | 127° |
| 2026-04-26 00:20 | 51.17221 | -0.76134 | 2985 ft | 188 kts | 80° |
| 2026-04-26 00:20 | 51.17887 | -0.74427 | 3001 ft | 184 kts | 45° |
| 2026-04-26 00:20 | 51.18757 | -0.72926 | 3004 ft | 186 kts | 54° |
| 2026-04-26 00:21 | 51.19489 | -0.71215 | 3009 ft | 188 kts | 58° |
| 2026-04-26 00:21 | 51.20200 | -0.69467 | 3012 ft | 188 kts | 58° |
| 2026-04-26 00:21 | 51.20915 | -0.67733 | 3008 ft | 187 kts | 58° |
| 2026-04-26 00:21 | 51.21629 | -0.66005 | 3004 ft | 186 kts | 58° |
| 2026-04-26 00:22 | 51.22342 | -0.64282 | 3001 ft | 186 kts | 58° |
| 2026-04-26 00:22 | 51.23051 | -0.62565 | 3001 ft | 185 kts | 58° |
| 2026-04-26 00:22 | 51.23766 | -0.60859 | 3002 ft | 185 kts | 54° |
| 2026-04-26 00:22 | 51.24755 | -0.59536 | 2993 ft | 189 kts | 30° |
| 2026-04-26 00:23 | 51.26018 | -0.58929 | 2994 ft | 193 kts | 7° |
| 2026-04-26 00:23 | 51.27353 | -0.59182 | 2991 ft | 196 kts | 343° |
| 2026-04-26 00:23 | 51.28525 | -0.60293 | 2990 ft | 198 kts | 319° |
| 2026-04-26 00:23 | 51.29316 | -0.62087 | 2989 ft | 199 kts | 294° |
| 2026-04-26 00:24 | 51.29577 | -0.64248 | 2992 ft | 199 kts | 269° |
| 2026-04-26 00:24 | 51.29489 | -0.66451 | 2999 ft | 199 kts | 266° |
| 2026-04-26 00:24 | 51.29413 | -0.68648 | 3000 ft | 199 kts | 267° |
| 2026-04-26 00:24 | 51.29339 | -0.70849 | 2997 ft | 199 kts | 266° |
| 2026-04-26 00:25 | 51.29263 | -0.73055 | 2997 ft | 198 kts | 266° |
| 2026-04-26 00:25 | 51.29186 | -0.75259 | 2997 ft | 199 kts | 266° |
| 2026-04-26 00:25 | 51.29109 | -0.77473 | 2999 ft | 200 kts | 266° |
| 2026-04-26 00:25 | 51.29031 | -0.79690 | 3000 ft | 200 kts | 266° |
| 2026-04-26 00:26 | 51.28952 | -0.81917 | 3001 ft | 201 kts | 266° |
| 2026-04-26 00:26 | 51.28874 | -0.84145 | 3002 ft | 201 kts | 266° |
| 2026-04-26 00:26 | 51.28794 | -0.86380 | 3003 ft | 202 kts | 266° |
| 2026-04-26 00:26 | 51.28714 | -0.88611 | 3003 ft | 201 kts | 266° |
| 2026-04-26 00:27 | 51.28633 | -0.90836 | 2994 ft | 200 kts | 266° |
| 2026-04-26 00:27 | 51.28554 | -0.93053 | 3000 ft | 200 kts | 266° |
| 2026-04-26 00:27 | 51.28473 | -0.95263 | 2970 ft | 199 kts | 266° |
| 2026-04-26 00:27 | 51.28393 | -0.97461 | 2974 ft | 197 kts | 266° |
| 2026-04-26 00:28 | 51.28312 | -0.99641 | 2974 ft | 197 kts | 266° |
| 2026-04-26 00:28 | 51.28231 | -1.01836 | 2852 ft | 203 kts | 266° |
| 2026-04-26 00:28 | 51.28044 | -1.04055 | 2537 ft | 200 kts | 249° |
| 2026-04-26 00:28 | 51.27139 | -1.05572 | 2466 ft | 183 kts | 204° |
| 2026-04-26 00:29 | 51.25957 | -1.05833 | 2461 ft | 166 kts | 168° |
| 2026-04-26 00:29 | 51.25001 | -1.05066 | 2469 ft | 146 kts | 136° |
| 2026-04-26 00:29 | 51.24483 | -1.03758 | 2461 ft | 138 kts | 108° |
| 2026-04-26 00:29 | 51.24237 | -1.02262 | 2477 ft | 141 kts | 105° |
| 2026-04-26 00:30 | 51.23965 | -1.00742 | 2484 ft | 143 kts | 105° |
| 2026-04-26 00:30 | 51.23697 | -0.99206 | 2480 ft | 144 kts | 105° |
| 2026-04-26 00:30 | 51.23431 | -0.97676 | 2479 ft | 142 kts | 105° |
| 2026-04-26 00:30 | 51.23168 | -0.96169 | 2471 ft | 137 kts | 105° |
| 2026-04-26 00:31 | 51.22927 | -0.94783 | 2457 ft | 123 kts | 105° |
| 2026-04-26 00:31 | 51.22706 | -0.93515 | 2483 ft | 116 kts | 104° |
| 2026-04-26 00:31 | 51.22706 | -0.92240 | 2489 ft | 119 kts | 69° |
| 2026-04-26 00:31 | 51.23133 | -0.91028 | 2343 ft | 128 kts | 65° |
| 2026-04-26 00:32 | 51.23524 | -0.89787 | 2117 ft | 123 kts | 63° |
| 2026-04-26 00:32 | 51.23922 | -0.88600 | 1921 ft | 118 kts | 64° |
| 2026-04-26 00:32 | 51.24687 | -0.86305 | 1563 ft | 122 kts | 63° |
| 2026-04-26 00:33 | 51.25088 | -0.85102 | 1365 ft | 123 kts | 63° |
| 2026-04-26 00:33 | 51.25489 | -0.83898 | 1163 ft | 123 kts | 63° |
| 2026-04-26 00:33 | 51.25885 | -0.82708 | 963 ft | 123 kts | 62° |
| 2026-04-26 00:33 | 51.26287 | -0.81502 | 762 ft | 122 kts | 62° |
| 2026-04-26 00:34 | 51.26674 | -0.80342 | 570 ft | 115 kts | 62° |
| 2026-04-26 00:34 | 51.27038 | -0.79245 | 393 ft | 109 kts | 62° |
| 2026-04-26 00:34 | 51.27388 | -0.78194 | 239 ft | 106 kts | 62° |
| 2026-04-26 00:34 | 51.27704 | -0.77235 | 231 ft | 82 kts | 58° |
| 2026-04-26 00:35 | 51.27917 | -0.76629 | 231 ft | 29 kts | 62° |
| 2026-04-26 00:35 | 51.27986 | -0.76519 | 230 ft | 11 kts | 360° |
| 2026-04-26 00:35 | 51.28014 | -0.76568 | 230 ft | 8 kts | 287° |
| 2026-04-26 00:35 | 51.28027 | -0.76632 | 229 ft | 2 kts | 288° |
| 2026-04-26 00:36 | 51.28036 | -0.76680 | 231 ft | 7 kts | 287° |
| 2026-04-26 00:36 | 51.28045 | -0.76730 | 230 ft | 6 kts | 286° |
| 2026-04-26 00:36 | 51.28058 | -0.76794 | 227 ft | 1 kts | 288° |
| 2026-04-26 00:36 | 51.28067 | -0.76836 | 226 ft | 8 kts | 288° |
| 2026-04-26 00:37 | 51.28094 | -0.76971 | 222 ft | 16 kts | 287° |
| 2026-04-26 00:37 | 51.28114 | -0.77076 | 220 ft | 8 kts | 287° |
| 2026-04-26 00:37 | 51.28139 | -0.77198 | 218 ft | 15 kts | 288° |
| 2026-04-26 00:37 | 51.28164 | -0.77327 | 215 ft | 14 kts | 287° |
| 2026-04-26 00:38 | 51.28191 | -0.77463 | 217 ft | 11 kts | 288° |
| 2026-04-26 00:38 | 51.28212 | -0.77569 | 214 ft | 11 kts | 288° |
| 2026-04-26 00:38 | 51.28216 | -0.77644 | 217 ft | 3 kts | 257° |
| 2026-04-26 00:38 | 51.28196 | -0.77675 | 217 ft | 1 kts | 177° |
| 2026-04-26 00:39 | 51.28192 | -0.77665 | 217 ft | 1 kts | 108° |
| 2026-04-26 00:39 | 51.28187 | -0.77642 | 217 ft | 4 kts | 120° |
| 2026-04-26 00:39 | 51.28177 | -0.77623 | 217 ft | 1 kts | 123° |
| 2026-04-26 00:39 | 51.28173 | -0.77610 | 216 ft | 0 kts | 115° |